createdAt,value
2018-12-15T00:00:49.929Z,8.80
2018-12-15T00:01:49.891Z,9.00
2018-12-15T00:02:49.889Z,8.20
2018-12-15T00:03:49.799Z,7.70
2018-12-15T00:04:49.835Z,8.30
2018-12-15T00:05:49.725Z,8.40
2018-12-15T00:06:49.698Z,8.20
2018-12-15T00:07:49.625Z,8.30
2018-12-15T00:08:49.555Z,7.50
2018-12-15T00:09:49.539Z,8.50
2018-12-15T00:10:49.487Z,8.20
2018-12-15T00:11:49.450Z,8.40
2018-12-15T00:12:49.384Z,8.40
2018-12-15T00:13:49.362Z,8.50
2018-12-15T00:14:49.322Z,8.40
2018-12-15T00:15:49.243Z,8.20
2018-12-15T00:16:49.217Z,8.20
2018-12-15T00:17:49.156Z,8.40
2018-12-15T00:18:49.137Z,8.30
2018-12-15T00:19:49.054Z,8.10
2018-12-15T00:20:49.022Z,8.60
2018-12-15T00:21:48.971Z,8.30
2018-12-15T00:22:48.918Z,8.80
2018-12-15T00:23:48.873Z,8.20
2018-12-15T00:24:48.845Z,7.80
2018-12-15T00:25:48.805Z,8.20
2018-12-15T00:26:48.751Z,8.30
2018-12-15T00:27:48.698Z,8.60
2018-12-15T00:28:58.973Z,8.30
2018-12-15T00:29:58.206Z,8.20
2018-12-15T00:30:49.209Z,8.70
2018-12-15T00:31:48.627Z,8.80
2018-12-15T00:32:49.225Z,8.20
2018-12-15T00:33:48.407Z,8.50
2018-12-15T00:34:48.369Z,8.70
2018-12-15T00:35:48.342Z,8.60
2018-12-15T00:36:48.280Z,8.70
2018-12-15T00:37:48.249Z,8.60
2018-12-15T00:38:48.166Z,8.80
2018-12-15T00:39:48.126Z,8.50
2018-12-15T00:40:48.123Z,9.00
2018-12-15T00:41:48.076Z,9.00
2018-12-15T00:42:48.036Z,8.50
2018-12-15T00:43:47.941Z,8.60
2018-12-15T00:44:47.892Z,8.60
2018-12-15T00:45:47.906Z,8.60
2018-12-15T00:46:47.799Z,8.90
2018-12-15T00:47:47.781Z,8.80
2018-12-15T00:48:47.713Z,8.80
2018-12-15T00:49:47.662Z,9.00
2018-12-15T00:50:47.644Z,8.40
2018-12-15T00:51:47.588Z,9.40
2018-12-15T00:52:47.552Z,8.90
2018-12-15T00:53:47.506Z,9.00
2018-12-15T00:54:47.426Z,9.20
2018-12-15T00:55:47.404Z,8.80
2018-12-15T00:56:47.359Z,9.60
2018-12-15T00:57:47.270Z,9.20
2018-12-15T00:58:47.288Z,9.20
2018-12-15T00:59:47.200Z,8.90
2018-12-15T01:00:47.151Z,9.40
2018-12-15T01:01:47.119Z,9.30
2018-12-15T01:02:47.101Z,9.20
2018-12-15T01:03:47.028Z,9.20
2018-12-15T01:04:46.979Z,8.70
2018-12-15T01:05:46.931Z,9.40
2018-12-15T01:06:46.901Z,9.40
2018-12-15T01:07:46.853Z,9.10
2018-12-15T01:08:46.792Z,9.40
2018-12-15T01:09:46.750Z,9.30
2018-12-15T01:10:46.713Z,9.50
2018-12-15T01:11:46.628Z,9.50
2018-12-15T01:12:46.627Z,9.40
2018-12-15T01:13:46.555Z,9.30
2018-12-15T01:14:46.519Z,9.10
2018-12-15T01:15:46.463Z,8.80
2018-12-15T01:16:46.406Z,9.60
2018-12-15T01:17:46.413Z,9.70
2018-12-15T01:18:46.342Z,9.30
2018-12-15T01:19:46.286Z,9.20
2018-12-15T01:20:46.237Z,9.70
2018-12-15T01:21:46.218Z,10.00
2018-12-15T01:22:46.182Z,9.10
2018-12-15T01:23:46.090Z,9.20
2018-12-15T01:24:46.050Z,9.00
2018-12-15T01:25:45.998Z,9.60
2018-12-15T01:26:45.986Z,9.20
2018-12-15T01:27:45.931Z,9.80
2018-12-15T01:28:45.841Z,9.30
2018-12-15T01:29:45.809Z,10.00
2018-12-15T01:30:45.770Z,9.50
2018-12-15T01:31:45.719Z,9.40
2018-12-15T01:32:45.686Z,9.40
2018-12-15T01:33:45.646Z,9.30
2018-12-15T01:34:45.569Z,8.70
2018-12-15T01:35:45.521Z,9.30
2018-12-15T01:36:45.466Z,9.30
2018-12-15T01:37:45.492Z,9.30
2018-12-15T01:38:45.393Z,9.50
2018-12-15T01:39:45.367Z,10.10
2018-12-15T01:40:45.307Z,9.30
2018-12-15T01:41:45.300Z,9.20
2018-12-15T01:42:45.240Z,9.40
2018-12-15T01:43:45.190Z,9.90
2018-12-15T01:44:45.114Z,9.90
2018-12-15T01:45:45.097Z,10.20
2018-12-15T01:46:45.039Z,10.50
2018-12-15T01:47:44.967Z,9.40
2018-12-15T01:48:44.960Z,9.60
2018-12-15T01:49:44.906Z,9.90
2018-12-15T01:50:44.832Z,9.70
2018-12-15T01:51:44.793Z,9.20
2018-12-15T01:52:44.718Z,9.50
2018-12-15T01:53:44.705Z,9.60
2018-12-15T01:54:44.648Z,10.20
2018-12-15T01:55:44.590Z,9.30
2018-12-15T01:56:44.563Z,9.30
2018-12-15T01:57:44.505Z,9.80
2018-12-15T01:58:44.478Z,9.30
2018-12-15T01:59:44.463Z,9.80
2018-12-15T02:00:44.360Z,9.70
2018-12-15T02:01:44.307Z,10.20
2018-12-15T02:02:44.281Z,9.60
2018-12-15T02:03:44.234Z,9.80
2018-12-15T02:04:44.174Z,10.30
2018-12-15T02:05:44.166Z,10.20
2018-12-15T02:06:44.079Z,10.00
2018-12-15T02:07:44.046Z,10.50
2018-12-15T02:08:44.001Z,9.90
2018-12-15T02:09:43.957Z,10.90
2018-12-15T02:10:43.918Z,10.70
2018-12-15T02:11:43.892Z,10.00
2018-12-15T02:12:43.812Z,11.00
2018-12-15T02:13:43.758Z,10.70
2018-12-15T02:14:43.719Z,11.10
2018-12-15T02:15:43.681Z,10.50
2018-12-15T02:16:43.640Z,10.70
2018-12-15T02:17:43.606Z,10.20
2018-12-15T02:18:43.546Z,10.20
2018-12-15T02:19:43.480Z,10.50
2018-12-15T02:20:43.485Z,10.50
2018-12-15T02:21:53.004Z,10.80
2018-12-15T02:22:43.680Z,10.70
2018-12-15T02:23:43.355Z,10.70
2018-12-15T02:24:43.871Z,10.90
2018-12-15T02:25:43.191Z,10.70
2018-12-15T02:26:43.179Z,11.10
2018-12-15T02:27:43.146Z,10.90
2018-12-15T02:28:43.085Z,11.00
2018-12-15T02:29:43.009Z,10.80
2018-12-15T02:30:53.828Z,11.00
2018-12-15T02:33:22.794Z,11.10
2018-12-15T02:34:32.104Z,11.10
2018-12-15T02:35:32.333Z,11.10
2018-12-15T02:36:31.958Z,11.00
2018-12-15T02:37:31.923Z,10.70
2018-12-15T02:38:31.546Z,11.20
2018-12-15T02:39:31.736Z,11.80
2018-12-15T02:40:31.762Z,11.70
2018-12-15T02:41:31.370Z,11.40
2018-12-15T02:42:32.701Z,12.10
2018-12-15T02:43:31.761Z,11.80
2018-12-15T02:44:31.261Z,12.20
2018-12-15T02:45:31.339Z,12.10
2018-12-15T02:46:31.313Z,11.90
2018-12-15T02:47:31.204Z,12.30
2018-12-15T02:48:21.876Z,12.70
2018-12-15T02:49:32.493Z,12.10
2018-12-15T02:50:30.813Z,12.00
2018-12-15T02:51:21.691Z,12.50
2018-12-15T02:52:21.440Z,12.70
2018-12-15T02:53:31.244Z,12.10
2018-12-15T02:54:31.324Z,12.20
2018-12-15T02:55:21.659Z,12.40
2018-12-15T02:56:21.194Z,11.50
2018-12-15T02:57:21.748Z,12.30
2018-12-15T02:58:21.032Z,12.80
2018-12-15T03:01:00.751Z,12.40
2018-12-15T03:02:09.264Z,12.90
2018-12-15T03:03:08.997Z,13.50
2018-12-15T03:04:10.076Z,12.30
2018-12-15T03:05:00.382Z,12.30
2018-12-15T03:06:11.140Z,12.30
2018-12-15T03:07:00.597Z,12.10
2018-12-15T03:08:00.154Z,11.50
2018-12-15T03:09:00.670Z,12.00
2018-12-15T03:09:59.811Z,11.90
2018-12-15T03:10:59.770Z,12.00
2018-12-15T03:11:59.732Z,11.60
2018-12-15T03:12:59.672Z,12.60
2018-12-15T03:13:59.593Z,12.40
2018-12-15T03:14:59.557Z,12.00
2018-12-15T03:15:59.510Z,12.10
2018-12-15T03:16:59.498Z,11.80
2018-12-15T03:17:59.441Z,12.50
2018-12-15T03:18:59.396Z,12.00
2018-12-15T03:19:59.314Z,12.00
2018-12-15T03:20:59.307Z,13.10
2018-12-15T03:21:59.269Z,11.70
2018-12-15T03:22:59.188Z,12.10
2018-12-15T03:23:59.136Z,11.20
2018-12-15T03:24:59.087Z,11.80
2018-12-15T03:25:59.033Z,11.70
2018-12-15T03:26:59.012Z,12.00
2018-12-15T03:27:58.980Z,12.20
2018-12-15T03:28:58.879Z,11.40
2018-12-15T03:29:58.887Z,11.20
2018-12-15T03:30:58.816Z,11.00
2018-12-15T03:31:58.832Z,10.90
2018-12-15T03:32:58.736Z,11.40
2018-12-15T03:33:58.660Z,11.80
2018-12-15T03:34:58.654Z,11.40
2018-12-15T03:35:58.596Z,11.30
2018-12-15T03:36:58.542Z,10.80
2018-12-15T03:37:58.492Z,11.40
2018-12-15T03:38:58.455Z,11.50
2018-12-15T03:39:58.386Z,11.10
2018-12-15T03:40:58.351Z,11.70
2018-12-15T03:41:58.320Z,11.40
2018-12-15T03:42:58.238Z,12.00
2018-12-15T03:43:58.257Z,11.80
2018-12-15T03:44:58.346Z,11.40
2018-12-15T03:45:58.118Z,11.10
2018-12-15T03:46:58.049Z,11.70
2018-12-15T03:47:58.050Z,11.80
2018-12-15T03:48:57.965Z,11.60
2018-12-15T03:49:57.972Z,11.70
2018-12-15T03:50:57.898Z,11.60
2018-12-15T03:51:57.869Z,11.60
2018-12-15T03:52:57.796Z,10.60
2018-12-15T03:53:57.737Z,11.80
2018-12-15T03:54:57.714Z,10.40
2018-12-15T03:55:57.652Z,11.10
2018-12-15T03:56:57.608Z,11.50
2018-12-15T03:57:57.549Z,11.70
2018-12-15T03:58:57.485Z,11.80
2018-12-15T03:59:57.461Z,11.30
2018-12-15T04:00:57.464Z,11.50
2018-12-15T04:01:57.376Z,12.20
2018-12-15T04:02:57.304Z,11.80
2018-12-15T04:03:57.255Z,12.60
2018-12-15T04:04:57.250Z,12.60
2018-12-15T04:05:57.213Z,12.70
2018-12-15T04:06:57.166Z,12.50
2018-12-15T04:07:57.066Z,12.50
2018-12-15T04:08:57.046Z,12.30
2018-12-15T04:09:57.001Z,11.60
2018-12-15T04:10:56.963Z,12.30
2018-12-15T04:11:56.918Z,12.00
2018-12-15T04:12:56.851Z,11.30
2018-12-15T04:13:56.810Z,11.20
2018-12-15T04:14:56.766Z,11.40
2018-12-15T04:15:56.760Z,10.80
2018-12-15T04:16:56.725Z,11.10
2018-12-15T04:18:03.486Z,10.80
2018-12-15T04:18:56.553Z,11.40
2018-12-15T04:19:56.569Z,11.10
2018-12-15T04:20:56.483Z,12.70
2018-12-15T04:21:56.426Z,11.50
2018-12-15T04:22:56.390Z,11.40
2018-12-15T04:23:56.328Z,11.60
2018-12-15T04:24:56.281Z,11.80
2018-12-15T04:25:56.288Z,11.50
2018-12-15T04:26:56.249Z,11.40
2018-12-15T04:27:56.166Z,11.60
2018-12-15T04:28:56.102Z,11.00
2018-12-15T04:29:56.110Z,11.10
2018-12-15T04:30:56.010Z,10.70
2018-12-15T04:31:55.954Z,11.70
2018-12-15T04:32:55.886Z,11.60
2018-12-15T04:33:55.855Z,11.30
2018-12-15T04:34:55.851Z,11.40
2018-12-15T04:35:55.798Z,11.50
2018-12-15T04:36:55.720Z,11.50
2018-12-15T04:37:55.737Z,12.10
2018-12-15T04:38:55.645Z,11.20
2018-12-15T04:39:55.591Z,11.90
2018-12-15T04:40:55.570Z,12.00
2018-12-15T04:41:55.524Z,11.80
2018-12-15T04:42:55.450Z,11.40
2018-12-15T04:43:55.411Z,12.20
2018-12-15T04:44:55.380Z,11.00
2018-12-15T04:45:55.333Z,11.50
2018-12-15T04:46:55.308Z,11.40
2018-12-15T04:47:55.215Z,11.40
2018-12-15T04:48:55.192Z,11.20
2018-12-15T04:49:55.123Z,11.80
2018-12-15T04:50:55.088Z,11.50
2018-12-15T04:51:55.023Z,12.10
2018-12-15T04:52:54.991Z,11.30
2018-12-15T04:53:54.942Z,10.70
2018-12-15T04:54:54.895Z,11.10
2018-12-15T04:55:54.868Z,11.90
2018-12-15T04:56:54.803Z,11.90
2018-12-15T04:58:06.379Z,11.40
2018-12-15T04:58:55.449Z,11.80
2018-12-15T04:59:54.708Z,11.00
2018-12-15T05:00:55.461Z,12.00
2018-12-15T05:01:55.378Z,11.20
2018-12-15T05:02:54.528Z,11.90
2018-12-15T05:03:54.504Z,12.10
2018-12-15T05:04:54.400Z,11.60
2018-12-15T05:05:54.368Z,11.40
2018-12-15T05:06:54.335Z,11.60
2018-12-15T05:07:54.262Z,11.50
2018-12-15T05:08:54.240Z,11.70
2018-12-15T05:09:54.200Z,11.80
2018-12-15T05:10:54.171Z,12.20
2018-12-15T05:11:54.121Z,12.30
2018-12-15T05:12:54.053Z,11.90
2018-12-15T05:13:54.009Z,11.80
2018-12-15T05:14:53.962Z,12.10
2018-12-15T05:15:53.911Z,12.50
2018-12-15T05:16:53.913Z,11.70
2018-12-15T05:17:53.851Z,12.00
2018-12-15T05:18:53.761Z,12.00
2018-12-15T05:19:53.737Z,12.10
2018-12-15T05:20:53.658Z,12.00
2018-12-15T05:21:53.622Z,12.30
2018-12-15T05:22:53.591Z,12.30
2018-12-15T05:23:53.527Z,12.70
2018-12-15T05:24:53.483Z,11.60
2018-12-15T05:25:53.437Z,11.50
2018-12-15T05:26:53.385Z,12.00
2018-12-15T05:27:53.384Z,11.80
2018-12-15T05:28:53.313Z,12.30
2018-12-15T05:29:53.237Z,12.20
2018-12-15T05:30:53.210Z,12.00
2018-12-15T05:31:53.128Z,12.40
2018-12-15T05:32:53.131Z,12.40
2018-12-15T05:33:53.909Z,12.20
2018-12-15T05:34:53.003Z,12.60
2018-12-15T05:35:52.969Z,11.70
2018-12-15T05:36:52.919Z,11.50
2018-12-15T05:37:52.916Z,11.80
2018-12-15T05:38:52.825Z,12.20
2018-12-15T05:39:52.777Z,11.90
2018-12-15T05:40:52.746Z,11.30
2018-12-15T05:41:52.710Z,11.10
2018-12-15T05:42:52.645Z,11.50
2018-12-15T05:43:52.582Z,11.00
2018-12-15T05:44:52.524Z,11.10
2018-12-15T05:45:52.489Z,11.80
2018-12-15T05:46:52.441Z,11.70
2018-12-15T05:47:52.422Z,10.90
2018-12-15T05:48:52.370Z,11.70
2018-12-15T05:49:52.319Z,12.20
2018-12-15T05:50:52.295Z,11.70
2018-12-15T05:51:52.217Z,11.80
2018-12-15T05:52:52.161Z,11.90
2018-12-15T05:53:52.161Z,11.70
2018-12-15T05:54:52.067Z,11.60
2018-12-15T05:55:52.044Z,11.90
2018-12-15T05:56:51.983Z,11.20
2018-12-15T05:57:51.934Z,12.00
2018-12-15T05:58:51.882Z,11.20
2018-12-15T05:59:51.827Z,11.60
2018-12-15T06:00:51.792Z,12.10
2018-12-15T06:01:51.764Z,11.90
2018-12-15T06:02:51.729Z,12.30
2018-12-15T06:03:51.683Z,11.90
2018-12-15T06:04:51.603Z,11.80
2018-12-15T06:05:51.584Z,11.90
2018-12-15T06:06:51.513Z,12.40
2018-12-15T06:07:51.481Z,11.90
2018-12-15T06:08:51.494Z,12.20
2018-12-15T06:09:51.382Z,11.80
2018-12-15T06:10:51.315Z,12.00
2018-12-15T06:11:51.263Z,12.10
2018-12-15T06:12:51.251Z,11.70
2018-12-15T06:13:51.176Z,12.40
2018-12-15T06:14:51.183Z,12.90
2018-12-15T06:15:51.123Z,13.00
2018-12-15T06:16:51.017Z,12.60
2018-12-15T06:17:50.995Z,13.00
2018-12-15T06:18:50.952Z,12.70
2018-12-15T06:19:50.939Z,13.00
2018-12-15T06:20:50.890Z,12.60
2018-12-15T06:21:50.827Z,12.30
2018-12-15T06:22:50.769Z,12.80
2018-12-15T06:23:50.734Z,12.60
2018-12-15T06:24:50.693Z,13.20
2018-12-15T06:25:50.613Z,13.30
2018-12-15T06:26:50.561Z,12.30
2018-12-15T06:27:50.558Z,12.90
2018-12-15T06:28:50.482Z,12.20
2018-12-15T06:29:50.450Z,12.70
2018-12-15T06:30:50.414Z,12.90
2018-12-15T06:31:50.351Z,13.10
2018-12-15T06:32:50.312Z,12.40
2018-12-15T06:33:50.256Z,12.90
2018-12-15T06:34:50.220Z,12.80
2018-12-15T06:35:50.182Z,13.00
2018-12-15T06:36:50.098Z,13.60
2018-12-15T06:37:50.068Z,13.10
2018-12-15T06:38:50.027Z,13.70
2018-12-15T06:39:49.973Z,13.20
2018-12-15T06:40:49.923Z,13.00
2018-12-15T06:41:49.960Z,12.90
2018-12-15T06:42:49.844Z,12.40
2018-12-15T06:43:49.801Z,12.10
2018-12-15T06:44:49.729Z,12.50
2018-12-15T06:45:49.709Z,12.40
2018-12-15T06:46:49.630Z,12.60
2018-12-15T06:47:49.627Z,12.30
2018-12-15T06:48:49.531Z,13.10
2018-12-15T06:49:49.545Z,13.00
2018-12-15T06:50:49.460Z,13.00
2018-12-15T06:51:49.423Z,12.70
2018-12-15T06:52:49.415Z,12.90
2018-12-15T06:53:49.331Z,12.20
2018-12-15T06:54:49.319Z,12.60
2018-12-15T06:55:49.239Z,12.70
2018-12-15T06:56:49.174Z,12.80
2018-12-15T06:57:49.117Z,13.00
2018-12-15T06:58:49.087Z,12.30
2018-12-15T06:59:49.011Z,12.80
2018-12-15T07:00:48.977Z,12.20
2018-12-15T07:01:48.981Z,13.00
2018-12-15T07:02:48.868Z,13.30
2018-12-15T07:03:48.838Z,12.90
2018-12-15T07:04:48.808Z,12.80
2018-12-15T07:05:48.807Z,12.80
2018-12-15T07:06:48.725Z,13.40
2018-12-15T07:07:48.678Z,13.10
2018-12-15T07:08:48.610Z,12.00
2018-12-15T07:11:28.534Z,12.90
2018-12-15T07:12:28.504Z,12.50
2018-12-15T07:13:28.824Z,12.60
2018-12-15T07:14:28.610Z,13.00
2018-12-15T07:15:28.024Z,13.30
2018-12-15T07:16:27.775Z,12.80
2018-12-15T07:17:28.277Z,13.30
2018-12-15T07:18:28.285Z,12.40
2018-12-15T07:19:27.554Z,12.70
2018-12-15T07:20:27.482Z,13.00
2018-12-15T07:21:27.494Z,13.30
2018-12-15T07:22:27.412Z,13.10
2018-12-15T07:23:27.485Z,12.90
2018-12-15T07:24:27.436Z,12.70
2018-12-15T07:25:27.312Z,12.70
2018-12-15T07:26:27.304Z,12.90
2018-12-15T07:27:27.214Z,13.20
2018-12-15T07:28:27.145Z,13.40
2018-12-15T07:29:27.070Z,13.70
2018-12-15T07:30:27.919Z,13.90
2018-12-15T07:31:39.255Z,13.90
2018-12-15T07:32:27.572Z,13.60
2018-12-15T07:33:27.072Z,13.60
2018-12-15T07:34:26.871Z,13.30
2018-12-15T07:35:26.767Z,13.60
2018-12-15T07:36:26.699Z,13.00
2018-12-15T07:37:26.694Z,13.70
2018-12-15T07:38:36.844Z,13.10
2018-12-15T07:39:26.897Z,14.00
2018-12-15T07:40:26.884Z,14.00
2018-12-15T07:41:35.545Z,13.40
2018-12-15T07:42:27.165Z,13.20
2018-12-15T07:43:26.575Z,13.20
2018-12-15T07:44:26.434Z,13.70
2018-12-15T07:45:26.872Z,16.10
2018-12-15T07:46:26.298Z,15.50
2018-12-15T07:47:26.200Z,14.30
2018-12-15T07:48:26.178Z,14.80
2018-12-15T07:49:26.099Z,14.90
2018-12-15T07:50:26.079Z,15.10
2018-12-15T07:51:26.033Z,16.00
2018-12-15T07:52:25.997Z,16.60
2018-12-15T07:53:25.971Z,16.80
2018-12-15T07:54:25.847Z,16.00
2018-12-15T07:55:26.115Z,13.30
2018-12-15T07:56:25.770Z,13.60
2018-12-15T07:57:25.715Z,13.60
2018-12-15T07:58:25.687Z,13.50
2018-12-15T07:59:25.631Z,13.30
2018-12-15T08:00:25.597Z,13.60
2018-12-15T08:01:25.520Z,13.20
2018-12-15T08:02:25.471Z,13.70
2018-12-15T08:03:25.446Z,13.80
2018-12-15T08:04:25.374Z,13.10
2018-12-15T08:05:25.325Z,13.60
2018-12-15T08:06:25.280Z,13.40
2018-12-15T08:07:25.233Z,13.20
2018-12-15T08:08:25.185Z,13.50
2018-12-15T08:09:25.162Z,13.70
2018-12-15T08:10:25.100Z,14.20
2018-12-15T08:11:25.052Z,14.10
2018-12-15T08:12:25.004Z,13.20
2018-12-15T08:13:24.978Z,13.80
2018-12-15T08:14:24.958Z,13.90
2018-12-15T08:15:24.866Z,14.10
2018-12-15T08:16:24.820Z,14.20
2018-12-15T08:17:24.788Z,13.60
2018-12-15T08:18:24.787Z,13.40
2018-12-15T08:19:24.714Z,14.10
2018-12-15T08:20:24.651Z,14.40
2018-12-15T08:21:24.601Z,14.80
2018-12-15T08:22:26.248Z,14.40
2018-12-15T08:23:24.553Z,14.50
2018-12-15T08:24:24.463Z,14.80
2018-12-15T08:25:24.430Z,14.20
2018-12-15T08:26:24.374Z,14.10
2018-12-15T08:27:24.339Z,14.20
2018-12-15T08:28:24.247Z,14.80
2018-12-15T08:29:24.210Z,14.40
2018-12-15T08:30:24.285Z,14.50
2018-12-15T08:31:24.231Z,14.80
2018-12-15T08:32:24.135Z,15.30
2018-12-15T08:33:24.166Z,15.00
2018-12-15T08:34:24.006Z,15.80
2018-12-15T08:35:24.284Z,15.40
2018-12-15T08:36:23.906Z,14.70
2018-12-15T08:37:23.947Z,14.80
2018-12-15T08:38:23.787Z,14.80
2018-12-15T08:39:23.760Z,15.30
2018-12-15T08:40:23.709Z,15.80
2018-12-15T08:41:23.667Z,14.50
2018-12-15T08:42:23.616Z,14.70
2018-12-15T08:43:23.570Z,15.00
2018-12-15T08:44:23.523Z,13.90
2018-12-15T08:45:23.466Z,14.50
2018-12-15T08:46:23.451Z,14.30
2018-12-15T08:47:23.378Z,14.80
2018-12-15T08:48:23.354Z,14.50
2018-12-15T08:49:23.298Z,15.00
2018-12-15T08:50:23.231Z,15.40
2018-12-15T08:51:23.226Z,15.20
2018-12-15T08:52:23.137Z,14.50
2018-12-15T08:53:23.102Z,15.30
2018-12-15T08:54:23.051Z,15.50
2018-12-15T08:55:22.988Z,14.80
2018-12-15T08:56:22.966Z,14.60
2018-12-15T08:57:22.898Z,14.50
2018-12-15T08:58:22.858Z,15.40
2018-12-15T08:59:22.799Z,15.30
2018-12-15T09:00:22.748Z,15.80
2018-12-15T09:01:22.728Z,15.60
2018-12-15T09:02:22.657Z,14.30
2018-12-15T09:03:22.620Z,14.40
2018-12-15T09:04:22.570Z,15.50
2018-12-15T09:05:22.525Z,15.70
2018-12-15T09:06:22.497Z,15.90
2018-12-15T09:07:22.422Z,15.40
2018-12-15T09:08:22.379Z,15.80
2018-12-15T09:09:22.331Z,15.80
2018-12-15T09:10:22.288Z,15.30
2018-12-15T09:11:22.273Z,15.60
2018-12-15T09:12:22.200Z,15.10
2018-12-15T09:13:22.143Z,16.00
2018-12-15T09:14:22.100Z,15.20
2018-12-15T09:15:22.054Z,16.00
2018-12-15T09:16:26.427Z,15.70
2018-12-15T09:17:21.959Z,15.50
2018-12-15T09:18:21.913Z,16.00
2018-12-15T09:19:21.862Z,15.40
2018-12-15T09:20:21.822Z,15.70
2018-12-15T09:21:21.796Z,15.70
2018-12-15T09:22:21.754Z,16.40
2018-12-15T09:23:22.764Z,16.10
2018-12-15T09:24:21.669Z,16.60
2018-12-15T09:25:21.596Z,16.40
2018-12-15T09:26:21.559Z,16.80
2018-12-15T09:27:21.561Z,16.60
2018-12-15T09:28:21.487Z,16.80
2018-12-15T09:29:21.422Z,17.40
2018-12-15T09:30:21.369Z,16.70
2018-12-15T09:31:21.313Z,15.60
2018-12-15T09:32:21.298Z,16.40
2018-12-15T09:33:21.273Z,16.30
2018-12-15T09:34:21.229Z,16.00
2018-12-15T09:35:21.143Z,16.30
2018-12-15T09:36:21.094Z,16.70
2018-12-15T09:37:21.065Z,16.70
2018-12-15T09:38:21.005Z,16.50
2018-12-15T09:39:20.957Z,16.00
2018-12-15T09:40:20.919Z,16.70
2018-12-15T09:41:20.860Z,16.70
2018-12-15T09:42:20.802Z,16.70
2018-12-15T09:43:20.792Z,15.80
2018-12-15T09:44:20.713Z,16.40
2018-12-15T09:45:20.677Z,16.90
2018-12-15T09:46:20.627Z,17.10
2018-12-15T09:47:20.590Z,16.20
2018-12-15T09:48:20.561Z,16.60
2018-12-15T09:49:20.499Z,16.20
2018-12-15T09:50:20.432Z,16.30
2018-12-15T09:51:20.382Z,16.80
2018-12-15T09:52:20.340Z,16.20
2018-12-15T09:53:20.311Z,16.40
2018-12-15T09:54:20.240Z,16.50
2018-12-15T09:55:20.210Z,16.40
2018-12-15T09:56:20.166Z,16.30
2018-12-15T09:57:20.123Z,16.30
2018-12-15T09:58:20.142Z,15.90
2018-12-15T09:59:20.019Z,16.30
2018-12-15T10:00:19.969Z,16.30
2018-12-15T10:01:19.934Z,15.90
2018-12-15T10:02:19.908Z,16.50
2018-12-15T10:03:19.878Z,16.00
2018-12-15T10:04:19.811Z,16.00
2018-12-15T10:05:19.753Z,16.20
2018-12-15T10:06:19.690Z,15.40
2018-12-15T10:07:19.657Z,16.30
2018-12-15T10:08:19.625Z,15.70
2018-12-15T10:09:19.570Z,16.10
2018-12-15T10:10:19.559Z,16.30
2018-12-15T10:11:19.458Z,15.90
2018-12-15T10:12:19.419Z,15.80
2018-12-15T10:13:19.382Z,16.10
2018-12-15T10:14:19.334Z,16.20
2018-12-15T10:15:19.307Z,15.40
2018-12-15T10:16:19.261Z,15.60
2018-12-15T10:17:19.189Z,15.40
2018-12-15T10:18:19.133Z,15.40
2018-12-15T10:19:24.276Z,15.40
2018-12-15T10:20:19.045Z,14.80
2018-12-15T10:21:18.999Z,14.50
2018-12-15T10:22:18.985Z,15.00
2018-12-15T10:23:18.971Z,14.90
2018-12-15T10:24:18.870Z,15.90
2018-12-15T10:25:18.818Z,15.20
2018-12-15T10:26:18.781Z,15.00
2018-12-15T10:27:18.755Z,14.90
2018-12-15T10:28:18.678Z,14.90
2018-12-15T10:29:18.661Z,15.10
2018-12-15T10:30:27.607Z,15.40
2018-12-15T10:31:18.529Z,15.00
2018-12-15T10:32:18.479Z,15.00
2018-12-15T10:33:18.428Z,15.50
2018-12-15T10:34:18.406Z,14.60
2018-12-15T10:35:18.336Z,14.80
2018-12-15T10:36:18.288Z,14.70
2018-12-15T10:37:18.252Z,14.70
2018-12-15T10:38:18.202Z,14.60
2018-12-15T10:39:18.182Z,14.00
2018-12-15T10:40:18.112Z,14.00
2018-12-15T10:41:18.054Z,15.10
2018-12-15T10:42:18.013Z,14.70
2018-12-15T10:43:17.970Z,14.10
2018-12-15T10:44:17.916Z,14.50
2018-12-15T10:45:17.900Z,14.10
2018-12-15T10:46:17.832Z,14.70
2018-12-15T10:47:17.777Z,15.10
2018-12-15T10:48:17.732Z,14.70
2018-12-15T10:49:17.695Z,14.40
2018-12-15T10:50:17.675Z,14.80
2018-12-15T10:51:17.663Z,14.90
2018-12-15T10:52:17.556Z,14.80
2018-12-15T10:53:17.502Z,13.30
2018-12-15T10:54:17.455Z,14.30
2018-12-15T10:55:17.408Z,14.20
2018-12-15T10:56:17.380Z,14.70
2018-12-15T10:57:17.321Z,14.10
2018-12-15T10:58:17.273Z,13.90
2018-12-15T10:59:17.230Z,14.00
2018-12-15T11:00:17.204Z,14.30
2018-12-15T11:01:17.130Z,14.20
2018-12-15T11:02:17.083Z,14.70
2018-12-15T11:03:17.044Z,15.70
2018-12-15T11:04:17.018Z,15.10
2018-12-15T11:05:16.942Z,14.90
2018-12-15T11:06:16.920Z,16.00
2018-12-15T11:07:16.851Z,14.60
2018-12-15T11:08:16.804Z,14.70
2018-12-15T11:09:16.764Z,15.50
2018-12-15T11:10:16.721Z,15.00
2018-12-15T11:11:16.700Z,15.40
2018-12-15T11:12:16.623Z,15.50
2018-12-15T11:13:16.572Z,14.90
2018-12-15T11:14:16.526Z,14.70
2018-12-15T11:15:16.479Z,15.90
2018-12-15T11:16:16.435Z,13.50
2018-12-15T11:17:16.417Z,14.20
2018-12-15T11:18:16.347Z,14.40
2018-12-15T11:19:16.293Z,14.00
2018-12-15T11:20:16.246Z,14.50
2018-12-15T11:21:16.233Z,14.50
2018-12-15T11:22:16.161Z,15.30
2018-12-15T11:23:16.113Z,15.00
2018-12-15T11:24:16.068Z,14.50
2018-12-15T11:25:16.016Z,15.50
2018-12-15T11:26:15.992Z,13.90
2018-12-15T11:27:15.946Z,14.30
2018-12-15T11:28:15.881Z,14.00
2018-12-15T11:29:15.838Z,14.60
2018-12-15T11:30:15.790Z,14.90
2018-12-15T11:31:15.766Z,15.10
2018-12-15T11:32:15.699Z,15.50
2018-12-15T11:33:15.644Z,14.90
2018-12-15T11:34:15.623Z,14.70
2018-12-15T11:35:15.558Z,14.80
2018-12-15T11:36:15.515Z,15.10
2018-12-15T11:37:15.486Z,15.30
2018-12-15T11:38:15.412Z,14.40
2018-12-15T11:39:15.369Z,14.90
2018-12-15T11:40:15.324Z,14.60
2018-12-15T11:41:15.281Z,14.20
2018-12-15T11:42:15.234Z,15.50
2018-12-15T11:43:15.213Z,14.30
2018-12-15T11:44:15.142Z,14.80
2018-12-15T11:45:15.092Z,14.40
2018-12-15T11:46:15.045Z,14.60
2018-12-15T11:47:15.002Z,14.10
2018-12-15T11:48:14.977Z,14.60
2018-12-15T11:49:14.913Z,14.50
2018-12-15T11:50:14.865Z,14.60
2018-12-15T11:51:14.812Z,14.30
2018-12-15T11:52:14.772Z,14.60
2018-12-15T11:53:14.749Z,13.90
2018-12-15T11:54:14.683Z,14.80
2018-12-15T11:55:14.635Z,14.50
2018-12-15T11:56:14.587Z,13.10
2018-12-15T11:57:14.533Z,14.30
2018-12-15T11:58:14.513Z,14.20
2018-12-15T11:59:14.442Z,14.10
2018-12-15T12:00:14.396Z,14.40
2018-12-15T12:01:14.355Z,14.00
2018-12-15T12:02:14.309Z,13.80
2018-12-15T12:03:14.289Z,14.90
2018-12-15T12:04:14.217Z,15.60
2018-12-15T12:05:14.168Z,15.00
2018-12-15T12:06:14.120Z,15.50
2018-12-15T12:07:14.076Z,15.20
2018-12-15T12:08:14.056Z,14.30
2018-12-15T12:09:13.981Z,14.80
2018-12-15T12:10:13.932Z,14.70
2018-12-15T12:11:13.885Z,14.70
2018-12-15T12:12:13.840Z,14.80
2018-12-15T12:13:13.831Z,14.70
2018-12-15T12:14:13.753Z,15.10
2018-12-15T12:15:13.706Z,13.70
2018-12-15T12:16:13.662Z,14.50
2018-12-15T12:17:13.611Z,13.90
2018-12-15T12:18:13.561Z,14.90
2018-12-15T12:19:13.537Z,14.20
2018-12-15T12:20:13.471Z,14.10
2018-12-15T12:21:13.432Z,13.70
2018-12-15T12:22:13.385Z,14.50
2018-12-15T12:23:13.330Z,13.70
2018-12-15T12:24:13.315Z,14.30
2018-12-15T12:25:13.247Z,13.50
2018-12-15T12:26:13.199Z,14.30
2018-12-15T12:27:13.154Z,14.40
2018-12-15T12:28:13.110Z,13.50
2018-12-15T12:29:13.056Z,13.80
2018-12-15T12:30:13.031Z,13.70
2018-12-15T12:31:12.963Z,13.40
2018-12-15T12:32:12.917Z,13.50
2018-12-15T12:33:12.892Z,13.30
2018-12-15T12:34:12.832Z,13.40
2018-12-15T12:35:12.841Z,13.40
2018-12-15T12:36:12.739Z,13.70
2018-12-15T12:37:12.717Z,13.20
2018-12-15T12:38:12.646Z,13.50
2018-12-15T12:39:12.601Z,13.70
2018-12-15T12:40:12.555Z,13.10
2018-12-15T12:41:12.523Z,13.90
2018-12-15T12:42:12.453Z,12.90
2018-12-15T12:43:12.408Z,13.60
2018-12-15T12:44:12.362Z,13.10
2018-12-15T12:45:12.323Z,13.30
2018-12-15T12:46:12.302Z,13.50
2018-12-15T12:47:12.234Z,12.70
2018-12-15T12:48:12.188Z,12.20
2018-12-15T12:49:12.130Z,13.10
2018-12-15T12:50:12.109Z,13.40
2018-12-15T12:51:12.062Z,12.50
2018-12-15T12:52:11.992Z,13.90
2018-12-15T12:53:11.953Z,13.00
2018-12-15T12:54:11.917Z,13.20
2018-12-15T12:55:11.856Z,12.90
2018-12-15T12:56:11.840Z,12.70
2018-12-15T12:57:11.771Z,13.00
2018-12-15T12:58:11.723Z,13.10
2018-12-15T12:59:11.701Z,12.60
2018-12-15T13:00:11.653Z,13.40
2018-12-15T13:01:11.583Z,13.10